sensor_id;sensor_type;location;lat;lon;timestamp;P1;durP1;ratioP1;P2;durP2;ratioP2
59555;SDS011;45374;52.746;6.304;2022-08-05T00:02:08;11.65;;;5.97;;
59555;SDS011;45374;52.746;6.304;2022-08-05T00:04:34;14.38;;;6.10;;
59555;SDS011;45374;52.746;6.304;2022-08-05T00:07:00;11.02;;;6.10;;
59555;SDS011;45374;52.746;6.304;2022-08-05T00:09:25;12.70;;;6.63;;
59555;SDS011;45374;52.746;6.304;2022-08-05T00:11:51;12.35;;;5.93;;
59555;SDS011;45374;52.746;6.304;2022-08-05T00:14:17;11.40;;;6.18;;
59555;SDS011;45374;52.746;6.304;2022-08-05T00:16:43;10.15;;;6.75;;
59555;SDS011;45374;52.746;6.304;2022-08-05T00:19:09;16.05;;;6.20;;
59555;SDS011;45374;52.746;6.304;2022-08-05T00:21:34;12.85;;;6.10;;
59555;SDS011;45374;52.746;6.304;2022-08-05T00:24:00;10.45;;;5.80;;
59555;SDS011;45374;52.746;6.304;2022-08-05T00:26:26;14.05;;;6.25;;
59555;SDS011;45374;52.746;6.304;2022-08-05T00:28:51;10.30;;;5.55;;
59555;SDS011;45374;52.746;6.304;2022-08-05T00:31:17;18.13;;;5.65;;
59555;SDS011;45374;52.746;6.304;2022-08-05T00:33:43;14.30;;;5.82;;
59555;SDS011;45374;52.746;6.304;2022-08-05T00:36:08;10.80;;;5.55;;
59555;SDS011;45374;52.746;6.304;2022-08-05T00:38:34;16.75;;;6.35;;
59555;SDS011;45374;52.746;6.304;2022-08-05T00:41:00;9.73;;;5.40;;
59555;SDS011;45374;52.746;6.304;2022-08-05T00:43:25;10.48;;;5.38;;
59555;SDS011;45374;52.746;6.304;2022-08-05T00:45:51;11.25;;;5.45;;
59555;SDS011;45374;52.746;6.304;2022-08-05T00:48:18;9.52;;;5.70;;
59555;SDS011;45374;52.746;6.304;2022-08-05T00:50:46;11.65;;;5.57;;
59555;SDS011;45374;52.746;6.304;2022-08-05T00:53:13;10.15;;;5.72;;
59555;SDS011;45374;52.746;6.304;2022-08-05T00:55:41;11.50;;;5.85;;
59555;SDS011;45374;52.746;6.304;2022-08-05T00:58:08;10.93;;;5.20;;
59555;SDS011;45374;52.746;6.304;2022-08-05T01:00:35;11.75;;;5.90;;
59555;SDS011;45374;52.746;6.304;2022-08-05T01:03:00;10.20;;;6.05;;
59555;SDS011;45374;52.746;6.304;2022-08-05T01:05:26;14.48;;;5.93;;
59555;SDS011;45374;52.746;6.304;2022-08-05T01:07:52;14.27;;;6.30;;
59555;SDS011;45374;52.746;6.304;2022-08-05T01:10:18;10.52;;;6.30;;
59555;SDS011;45374;52.746;6.304;2022-08-05T01:12:47;11.80;;;6.80;;
59555;SDS011;45374;52.746;6.304;2022-08-05T01:15:20;15.35;;;6.60;;
59555;SDS011;45374;52.746;6.304;2022-08-05T01:17:50;12.02;;;6.38;;
59555;SDS011;45374;52.746;6.304;2022-08-05T01:28:56;12.38;;;6.55;;
59555;SDS011;45374;52.746;6.304;2022-08-05T01:36:38;15.85;;;6.75;;
59555;SDS011;45374;52.746;6.304;2022-08-05T01:39:08;11.48;;;6.65;;
59555;SDS011;45374;52.746;6.304;2022-08-05T01:41:36;14.52;;;6.38;;
59555;SDS011;45374;52.746;6.304;2022-08-05T01:44:03;14.70;;;6.57;;
59555;SDS011;45374;52.746;6.304;2022-08-05T01:46:31;10.15;;;6.38;;
59555;SDS011;45374;52.746;6.304;2022-08-05T01:48:59;12.82;;;6.65;;
59555;SDS011;45374;52.746;6.304;2022-08-05T01:51:26;12.45;;;6.75;;
59555;SDS011;45374;52.746;6.304;2022-08-05T01:53:55;11.93;;;6.13;;
59555;SDS011;45374;52.746;6.304;2022-08-05T01:56:22;16.25;;;6.55;;
59555;SDS011;45374;52.746;6.304;2022-08-05T01:58:54;11.68;;;6.53;;
59555;SDS011;45374;52.746;6.304;2022-08-05T02:01:21;11.98;;;5.97;;
59555;SDS011;45374;52.746;6.304;2022-08-05T02:03:49;10.13;;;6.15;;
59555;SDS011;45374;52.746;6.304;2022-08-05T02:06:17;15.38;;;5.97;;
59555;SDS011;45374;52.746;6.304;2022-08-05T02:08:43;12.55;;;6.25;;
59555;SDS011;45374;52.746;6.304;2022-08-05T02:11:10;9.23;;;5.90;;
59555;SDS011;45374;52.746;6.304;2022-08-05T02:16:19;14.40;;;6.65;;
59555;SDS011;45374;52.746;6.304;2022-08-05T02:24:40;12.45;;;6.70;;
59555;SDS011;45374;52.746;6.304;2022-08-05T02:27:12;14.07;;;7.45;;
59555;SDS011;45374;52.746;6.304;2022-08-05T02:29:39;12.45;;;7.03;;
59555;SDS011;45374;52.746;6.304;2022-08-05T02:32:08;12.10;;;6.82;;
59555;SDS011;45374;52.746;6.304;2022-08-05T02:34:35;13.70;;;6.90;;
59555;SDS011;45374;52.746;6.304;2022-08-05T02:37:02;12.18;;;7.03;;
59555;SDS011;45374;52.746;6.304;2022-08-05T02:39:33;15.00;;;7.25;;
59555;SDS011;45374;52.746;6.304;2022-08-05T02:42:01;14.23;;;6.95;;
59555;SDS011;45374;52.746;6.304;2022-08-05T02:44:28;14.10;;;7.20;;
59555;SDS011;45374;52.746;6.304;2022-08-05T02:46:56;12.52;;;7.80;;
59555;SDS011;45374;52.746;6.304;2022-08-05T02:49:23;14.85;;;7.45;;
59555;SDS011;45374;52.746;6.304;2022-08-05T02:51:51;15.38;;;7.65;;
59555;SDS011;45374;52.746;6.304;2022-08-05T02:54:19;13.68;;;7.65;;
59555;SDS011;45374;52.746;6.304;2022-08-05T02:56:46;14.23;;;7.35;;
59555;SDS011;45374;52.746;6.304;2022-08-05T02:59:12;15.48;;;7.65;;
59555;SDS011;45374;52.746;6.304;2022-08-05T03:01:41;15.35;;;7.85;;
59555;SDS011;45374;52.746;6.304;2022-08-05T03:04:09;15.00;;;8.00;;
59555;SDS011;45374;52.746;6.304;2022-08-05T03:06:38;10.23;;;6.70;;
59555;SDS011;45374;52.746;6.304;2022-08-05T03:09:05;14.38;;;7.63;;
59555;SDS011;45374;52.746;6.304;2022-08-05T03:11:31;11.65;;;7.10;;
59555;SDS011;45374;52.746;6.304;2022-08-05T03:13:57;16.20;;;7.45;;
59555;SDS011;45374;52.746;6.304;2022-08-05T03:16:22;12.25;;;7.43;;
59555;SDS011;45374;52.746;6.304;2022-08-05T03:18:48;11.65;;;7.20;;
59555;SDS011;45374;52.746;6.304;2022-08-05T03:21:14;15.57;;;7.05;;
59555;SDS011;45374;52.746;6.304;2022-08-05T03:23:40;12.30;;;6.65;;
59555;SDS011;45374;52.746;6.304;2022-08-05T03:26:07;17.63;;;6.70;;
59555;SDS011;45374;52.746;6.304;2022-08-05T03:28:33;16.33;;;6.82;;
59555;SDS011;45374;52.746;6.304;2022-08-05T03:31:00;14.02;;;7.25;;
59555;SDS011;45374;52.746;6.304;2022-08-05T03:33:26;12.02;;;6.75;;
59555;SDS011;45374;52.746;6.304;2022-08-05T03:35:53;14.95;;;7.10;;
59555;SDS011;45374;52.746;6.304;2022-08-05T03:38:23;11.77;;;6.90;;
59555;SDS011;45374;52.746;6.304;2022-08-05T03:40:49;11.48;;;6.97;;
59555;SDS011;45374;52.746;6.304;2022-08-05T03:43:17;11.50;;;6.65;;
59555;SDS011;45374;52.746;6.304;2022-08-05T03:45:43;13.93;;;6.07;;
59555;SDS011;45374;52.746;6.304;2022-08-05T03:48:08;16.50;;;6.72;;
59555;SDS011;45374;52.746;6.304;2022-08-05T03:50:36;12.00;;;6.80;;
59555;SDS011;45374;52.746;6.304;2022-08-05T03:53:10;16.20;;;6.45;;
59555;SDS011;45374;52.746;6.304;2022-08-05T03:55:43;13.55;;;6.82;;
59555;SDS011;45374;52.746;6.304;2022-08-05T03:58:15;19.23;;;7.53;;
59555;SDS011;45374;52.746;6.304;2022-08-05T04:00:43;16.85;;;7.53;;
59555;SDS011;45374;52.746;6.304;2022-08-05T04:03:09;15.93;;;7.57;;
59555;SDS011;45374;52.746;6.304;2022-08-05T04:05:36;11.50;;;7.00;;
59555;SDS011;45374;52.746;6.304;2022-08-05T04:08:04;13.90;;;7.90;;
59555;SDS011;45374;52.746;6.304;2022-08-05T04:10:31;12.25;;;6.95;;
59555;SDS011;45374;52.746;6.304;2022-08-05T04:12:59;11.85;;;7.70;;
59555;SDS011;45374;52.746;6.304;2022-08-05T04:15:25;13.93;;;8.30;;
59555;SDS011;45374;52.746;6.304;2022-08-05T04:17:52;13.70;;;7.30;;
59555;SDS011;45374;52.746;6.304;2022-08-05T04:20:19;12.07;;;7.30;;
59555;SDS011;45374;52.746;6.304;2022-08-05T04:22:46;14.20;;;7.72;;
59555;SDS011;45374;52.746;6.304;2022-08-05T04:25:12;12.02;;;7.32;;
59555;SDS011;45374;52.746;6.304;2022-08-05T04:27:38;12.32;;;7.43;;
59555;SDS011;45374;52.746;6.304;2022-08-05T04:30:04;15.48;;;7.72;;
59555;SDS011;45374;52.746;6.304;2022-08-05T04:32:31;14.05;;;8.13;;
59555;SDS011;45374;52.746;6.304;2022-08-05T04:34:56;14.05;;;7.68;;
59555;SDS011;45374;52.746;6.304;2022-08-05T04:37:22;16.75;;;7.95;;
59555;SDS011;45374;52.746;6.304;2022-08-05T04:39:47;11.88;;;7.93;;
59555;SDS011;45374;52.746;6.304;2022-08-05T04:42:13;11.23;;;7.78;;
59555;SDS011;45374;52.746;6.304;2022-08-05T04:44:39;16.27;;;7.78;;
59555;SDS011;45374;52.746;6.304;2022-08-05T04:47:05;20.88;;;8.05;;
59555;SDS011;45374;52.746;6.304;2022-08-05T04:49:30;12.55;;;7.82;;
59555;SDS011;45374;52.746;6.304;2022-08-05T04:51:56;14.23;;;8.57;;
59555;SDS011;45374;52.746;6.304;2022-08-05T04:54:22;14.63;;;8.55;;
59555;SDS011;45374;52.746;6.304;2022-08-05T04:56:51;17.13;;;9.48;;
59555;SDS011;45374;52.746;6.304;2022-08-05T04:59:17;18.40;;;9.18;;
59555;SDS011;45374;52.746;6.304;2022-08-05T05:01:44;17.67;;;9.50;;
59555;SDS011;45374;52.746;6.304;2022-08-05T05:04:10;16.52;;;8.45;;
59555;SDS011;45374;52.746;6.304;2022-08-05T05:06:35;15.35;;;9.63;;
59555;SDS011;45374;52.746;6.304;2022-08-05T05:09:01;16.25;;;9.02;;
59555;SDS011;45374;52.746;6.304;2022-08-05T05:11:27;13.38;;;8.90;;
59555;SDS011;45374;52.746;6.304;2022-08-05T05:13:53;15.93;;;8.93;;
59555;SDS011;45374;52.746;6.304;2022-08-05T05:16:18;13.50;;;8.65;;
59555;SDS011;45374;52.746;6.304;2022-08-05T05:18:44;17.05;;;8.20;;
59555;SDS011;45374;52.746;6.304;2022-08-05T05:21:09;14.98;;;7.93;;
59555;SDS011;45374;52.746;6.304;2022-08-05T05:23:35;13.90;;;7.45;;
59555;SDS011;45374;52.746;6.304;2022-08-05T05:26:00;16.33;;;8.18;;
59555;SDS011;45374;52.746;6.304;2022-08-05T05:28:26;15.55;;;7.93;;
59555;SDS011;45374;52.746;6.304;2022-08-05T05:30:52;13.60;;;7.78;;
59555;SDS011;45374;52.746;6.304;2022-08-05T05:33:17;16.48;;;8.18;;
59555;SDS011;45374;52.746;6.304;2022-08-05T05:35:44;15.40;;;7.95;;
59555;SDS011;45374;52.746;6.304;2022-08-05T05:38:10;13.80;;;6.95;;
59555;SDS011;45374;52.746;6.304;2022-08-05T05:40:36;13.00;;;7.22;;
59555;SDS011;45374;52.746;6.304;2022-08-05T05:43:02;13.48;;;7.95;;
59555;SDS011;45374;52.746;6.304;2022-08-05T05:45:28;16.80;;;8.00;;
59555;SDS011;45374;52.746;6.304;2022-08-05T05:47:53;17.98;;;7.28;;
59555;SDS011;45374;52.746;6.304;2022-08-05T05:50:21;10.43;;;7.32;;
59555;SDS011;45374;52.746;6.304;2022-08-05T05:52:47;11.60;;;7.47;;
59555;SDS011;45374;52.746;6.304;2022-08-05T05:55:13;14.40;;;7.93;;
59555;SDS011;45374;52.746;6.304;2022-08-05T05:57:40;12.18;;;7.75;;
59555;SDS011;45374;52.746;6.304;2022-08-05T06:00:09;10.38;;;7.75;;
59555;SDS011;45374;52.746;6.304;2022-08-05T06:02:37;13.02;;;8.10;;
59555;SDS011;45374;52.746;6.304;2022-08-05T06:05:03;12.80;;;7.47;;
59555;SDS011;45374;52.746;6.304;2022-08-05T06:07:30;15.25;;;7.43;;
59555;SDS011;45374;52.746;6.304;2022-08-05T06:09:56;13.15;;;7.50;;
59555;SDS011;45374;52.746;6.304;2022-08-05T06:12:21;12.68;;;7.35;;
59555;SDS011;45374;52.746;6.304;2022-08-05T06:14:47;12.43;;;7.80;;
59555;SDS011;45374;52.746;6.304;2022-08-05T06:17:12;11.75;;;7.38;;
59555;SDS011;45374;52.746;6.304;2022-08-05T06:19:38;12.50;;;7.90;;
59555;SDS011;45374;52.746;6.304;2022-08-05T06:22:05;13.27;;;8.02;;
59555;SDS011;45374;52.746;6.304;2022-08-05T06:24:32;11.77;;;7.68;;
59555;SDS011;45374;52.746;6.304;2022-08-05T06:26:58;11.82;;;7.35;;
59555;SDS011;45374;52.746;6.304;2022-08-05T06:29:24;14.35;;;7.28;;
59555;SDS011;45374;52.746;6.304;2022-08-05T06:31:50;12.48;;;7.50;;
59555;SDS011;45374;52.746;6.304;2022-08-05T06:34:16;12.48;;;6.78;;
59555;SDS011;45374;52.746;6.304;2022-08-05T06:36:42;14.88;;;6.90;;
59555;SDS011;45374;52.746;6.304;2022-08-05T06:39:07;9.73;;;6.20;;
59555;SDS011;45374;52.746;6.304;2022-08-05T06:41:33;11.57;;;5.82;;
59555;SDS011;45374;52.746;6.304;2022-08-05T06:43:59;9.07;;;5.57;;
59555;SDS011;45374;52.746;6.304;2022-08-05T06:46:24;8.85;;;6.00;;
59555;SDS011;45374;52.746;6.304;2022-08-05T06:48:50;10.38;;;5.63;;
59555;SDS011;45374;52.746;6.304;2022-08-05T06:51:16;10.88;;;5.82;;
59555;SDS011;45374;52.746;6.304;2022-08-05T06:53:41;11.30;;;5.38;;
59555;SDS011;45374;52.746;6.304;2022-08-05T06:56:07;7.78;;;5.28;;
59555;SDS011;45374;52.746;6.304;2022-08-05T06:58:33;9.85;;;4.90;;
59555;SDS011;45374;52.746;6.304;2022-08-05T07:00:59;9.40;;;4.53;;
59555;SDS011;45374;52.746;6.304;2022-08-05T07:03:25;7.13;;;4.35;;
59555;SDS011;45374;52.746;6.304;2022-08-05T07:05:52;7.65;;;3.28;;
59555;SDS011;45374;52.746;6.304;2022-08-05T07:08:18;8.25;;;3.60;;
59555;SDS011;45374;52.746;6.304;2022-08-05T07:10:46;7.20;;;3.40;;
59555;SDS011;45374;52.746;6.304;2022-08-05T07:13:12;9.13;;;3.85;;
59555;SDS011;45374;52.746;6.304;2022-08-05T07:15:57;8.23;;;3.60;;
59555;SDS011;45374;52.746;6.304;2022-08-05T07:18:40;6.40;;;3.35;;
59555;SDS011;45374;52.746;6.304;2022-08-05T07:21:06;5.72;;;3.40;;
59555;SDS011;45374;52.746;6.304;2022-08-05T07:23:32;4.65;;;3.03;;
59555;SDS011;45374;52.746;6.304;2022-08-05T07:25:59;5.00;;;3.05;;
59555;SDS011;45374;52.746;6.304;2022-08-05T07:28:25;7.63;;;3.28;;
59555;SDS011;45374;52.746;6.304;2022-08-05T07:30:50;6.10;;;3.72;;
59555;SDS011;45374;52.746;6.304;2022-08-05T07:33:16;5.43;;;3.05;;
59555;SDS011;45374;52.746;6.304;2022-08-05T07:35:42;5.15;;;3.38;;
59555;SDS011;45374;52.746;6.304;2022-08-05T07:38:09;6.35;;;3.17;;
59555;SDS011;45374;52.746;6.304;2022-08-05T07:40:35;7.70;;;3.28;;
59555;SDS011;45374;52.746;6.304;2022-08-05T07:43:00;4.40;;;3.00;;
59555;SDS011;45374;52.746;6.304;2022-08-05T07:45:26;9.55;;;3.50;;
59555;SDS011;45374;52.746;6.304;2022-08-05T07:47:52;7.05;;;3.17;;
59555;SDS011;45374;52.746;6.304;2022-08-05T07:50:17;5.22;;;3.33;;
59555;SDS011;45374;52.746;6.304;2022-08-05T07:52:44;5.30;;;3.15;;
59555;SDS011;45374;52.746;6.304;2022-08-05T07:55:10;5.13;;;2.90;;
59555;SDS011;45374;52.746;6.304;2022-08-05T07:57:36;6.55;;;2.85;;
59555;SDS011;45374;52.746;6.304;2022-08-05T08:00:05;5.10;;;2.85;;
59555;SDS011;45374;52.746;6.304;2022-08-05T08:02:32;4.30;;;2.90;;
59555;SDS011;45374;52.746;6.304;2022-08-05T08:04:58;8.52;;;2.90;;
59555;SDS011;45374;52.746;6.304;2022-08-05T08:07:24;5.10;;;2.47;;
59555;SDS011;45374;52.746;6.304;2022-08-05T08:09:50;4.43;;;2.83;;
59555;SDS011;45374;52.746;6.304;2022-08-05T08:12:16;5.75;;;2.70;;
59555;SDS011;45374;52.746;6.304;2022-08-05T08:14:42;6.40;;;2.47;;
59555;SDS011;45374;52.746;6.304;2022-08-05T08:17:08;5.13;;;2.40;;
59555;SDS011;45374;52.746;6.304;2022-08-05T08:19:41;3.95;;;2.50;;
59555;SDS011;45374;52.746;6.304;2022-08-05T08:22:08;3.28;;;2.33;;
59555;SDS011;45374;52.746;6.304;2022-08-05T08:24:34;5.80;;;2.53;;
59555;SDS011;45374;52.746;6.304;2022-08-05T08:27:00;4.90;;;2.58;;
59555;SDS011;45374;52.746;6.304;2022-08-05T08:29:26;5.60;;;2.00;;
59555;SDS011;45374;52.746;6.304;2022-08-05T08:31:51;3.47;;;2.38;;
59555;SDS011;45374;52.746;6.304;2022-08-05T08:34:21;2.47;;;1.40;;
59555;SDS011;45374;52.746;6.304;2022-08-05T08:36:48;2.55;;;1.85;;
59555;SDS011;45374;52.746;6.304;2022-08-05T08:39:13;3.20;;;2.03;;
59555;SDS011;45374;52.746;6.304;2022-08-05T08:41:42;3.88;;;2.55;;
59555;SDS011;45374;52.746;6.304;2022-08-05T08:44:10;6.32;;;2.40;;
59555;SDS011;45374;52.746;6.304;2022-08-05T08:46:37;3.15;;;2.70;;
59555;SDS011;45374;52.746;6.304;2022-08-05T08:49:03;4.88;;;2.70;;
59555;SDS011;45374;52.746;6.304;2022-08-05T08:51:31;5.32;;;2.33;;
59555;SDS011;45374;52.746;6.304;2022-08-05T08:53:58;5.57;;;2.00;;
59555;SDS011;45374;52.746;6.304;2022-08-05T08:56:24;6.10;;;2.50;;
59555;SDS011;45374;52.746;6.304;2022-08-05T08:58:50;2.40;;;1.30;;
59555;SDS011;45374;52.746;6.304;2022-08-05T09:01:17;1.90;;;1.60;;
59555;SDS011;45374;52.746;6.304;2022-08-05T09:03:47;7.10;;;1.75;;
59555;SDS011;45374;52.746;6.304;2022-08-05T09:06:13;3.35;;;1.80;;
59555;SDS011;45374;52.746;6.304;2022-08-05T09:08:39;3.83;;;2.08;;
59555;SDS011;45374;52.746;6.304;2022-08-05T09:11:05;3.38;;;1.30;;
59555;SDS011;45374;52.746;6.304;2022-08-05T09:13:32;4.18;;;1.30;;
59555;SDS011;45374;52.746;6.304;2022-08-05T09:15:59;2.15;;;1.10;;
59555;SDS011;45374;52.746;6.304;2022-08-05T09:18:26;2.53;;;1.02;;
59555;SDS011;45374;52.746;6.304;2022-08-05T09:20:52;3.15;;;1.23;;
59555;SDS011;45374;52.746;6.304;2022-08-05T09:23:18;3.08;;;1.23;;
59555;SDS011;45374;52.746;6.304;2022-08-05T09:25:45;2.35;;;1.20;;
59555;SDS011;45374;52.746;6.304;2022-08-05T09:28:14;3.35;;;1.10;;
59555;SDS011;45374;52.746;6.304;2022-08-05T09:33:29;5.57;;;1.30;;
59555;SDS011;45374;52.746;6.304;2022-08-05T09:38:25;2.67;;;1.30;;
59555;SDS011;45374;52.746;6.304;2022-08-05T09:40:52;4.25;;;1.13;;
59555;SDS011;45374;52.746;6.304;2022-08-05T09:43:31;2.30;;;1.13;;
59555;SDS011;45374;52.746;6.304;2022-08-05T09:45:58;3.45;;;1.30;;
59555;SDS011;45374;52.746;6.304;2022-08-05T09:48:26;3.85;;;1.13;;
59555;SDS011;45374;52.746;6.304;2022-08-05T09:50:57;1.95;;;0.80;;
59555;SDS011;45374;52.746;6.304;2022-08-05T09:53:24;0.57;;;0.57;;
59555;SDS011;45374;52.746;6.304;2022-08-05T09:55:52;3.28;;;1.00;;
59555;SDS011;45374;52.746;6.304;2022-08-05T09:58:19;4.07;;;1.23;;
59555;SDS011;45374;52.746;6.304;2022-08-05T10:03:40;3.88;;;0.82;;
59555;SDS011;45374;52.746;6.304;2022-08-05T10:06:24;2.63;;;0.90;;
59555;SDS011;45374;52.746;6.304;2022-08-05T10:08:51;5.28;;;0.95;;
59555;SDS011;45374;52.746;6.304;2022-08-05T10:11:17;2.65;;;0.68;;
59555;SDS011;45374;52.746;6.304;2022-08-05T10:13:43;2.78;;;0.70;;
59555;SDS011;45374;52.746;6.304;2022-08-05T10:18:56;2.05;;;0.68;;
59555;SDS011;45374;52.746;6.304;2022-08-05T10:21:22;1.05;;;0.70;;
59555;SDS011;45374;52.746;6.304;2022-08-05T10:23:48;2.58;;;0.82;;
59555;SDS011;45374;52.746;6.304;2022-08-05T10:26:14;2.00;;;1.10;;
59555;SDS011;45374;52.746;6.304;2022-08-05T10:28:40;4.50;;;1.05;;
59555;SDS011;45374;52.746;6.304;2022-08-05T10:31:07;3.97;;;0.60;;
59555;SDS011;45374;52.746;6.304;2022-08-05T10:33:33;5.32;;;1.20;;
59555;SDS011;45374;52.746;6.304;2022-08-05T10:35:59;4.00;;;0.77;;
59555;SDS011;45374;52.746;6.304;2022-08-05T10:38:29;1.60;;;0.60;;
59555;SDS011;45374;52.746;6.304;2022-08-05T10:43:50;3.70;;;0.65;;
59555;SDS011;45374;52.746;6.304;2022-08-05T10:46:40;1.27;;;0.60;;
59555;SDS011;45374;52.746;6.304;2022-08-05T10:49:11;2.53;;;0.52;;
59555;SDS011;45374;52.746;6.304;2022-08-05T10:51:50;1.02;;;0.63;;
59555;SDS011;45374;52.746;6.304;2022-08-05T10:54:21;1.48;;;0.50;;
59555;SDS011;45374;52.746;6.304;2022-08-05T10:56:50;1.05;;;0.60;;
59555;SDS011;45374;52.746;6.304;2022-08-05T10:59:26;1.77;;;0.60;;
59555;SDS011;45374;52.746;6.304;2022-08-05T11:02:06;0.52;;;0.50;;
59555;SDS011;45374;52.746;6.304;2022-08-05T11:04:43;1.55;;;0.50;;
59555;SDS011;45374;52.746;6.304;2022-08-05T11:07:10;1.23;;;0.47;;
59555;SDS011;45374;52.746;6.304;2022-08-05T11:09:51;1.95;;;0.60;;
59555;SDS011;45374;52.746;6.304;2022-08-05T11:15:04;2.03;;;0.55;;
59555;SDS011;45374;52.746;6.304;2022-08-05T11:17:35;1.73;;;0.50;;
59555;SDS011;45374;52.746;6.304;2022-08-05T11:20:07;0.50;;;0.50;;
59555;SDS011;45374;52.746;6.304;2022-08-05T11:22:53;3.20;;;0.55;;
59555;SDS011;45374;52.746;6.304;2022-08-05T11:25:37;2.13;;;0.50;;
59555;SDS011;45374;52.746;6.304;2022-08-05T11:35:57;1.17;;;0.40;;
59555;SDS011;45374;52.746;6.304;2022-08-05T11:46:38;3.00;;;0.53;;
59555;SDS011;45374;52.746;6.304;2022-08-05T11:49:06;3.97;;;0.50;;
59555;SDS011;45374;52.746;6.304;2022-08-05T11:51:36;2.47;;;0.50;;
59555;SDS011;45374;52.746;6.304;2022-08-05T11:54:01;1.85;;;0.50;;
59555;SDS011;45374;52.746;6.304;2022-08-05T11:56:46;1.48;;;0.68;;
59555;SDS011;45374;52.746;6.304;2022-08-05T11:59:14;1.77;;;0.60;;
59555;SDS011;45374;52.746;6.304;2022-08-05T12:01:57;2.10;;;0.55;;
59555;SDS011;45374;52.746;6.304;2022-08-05T12:04:25;3.50;;;0.50;;
59555;SDS011;45374;52.746;6.304;2022-08-05T12:07:02;5.20;;;0.60;;
59555;SDS011;45374;52.746;6.304;2022-08-05T12:09:29;4.13;;;0.65;;
59555;SDS011;45374;52.746;6.304;2022-08-05T12:12:00;2.28;;;0.80;;
59555;SDS011;45374;52.746;6.304;2022-08-05T12:14:34;2.88;;;0.60;;
59555;SDS011;45374;52.746;6.304;2022-08-05T12:17:07;0.73;;;0.40;;
59555;SDS011;45374;52.746;6.304;2022-08-05T12:19:39;1.15;;;0.50;;
59555;SDS011;45374;52.746;6.304;2022-08-05T12:22:07;2.83;;;0.57;;
59555;SDS011;45374;52.746;6.304;2022-08-05T12:24:32;2.15;;;0.50;;
59555;SDS011;45374;52.746;6.304;2022-08-05T12:26:59;1.73;;;0.52;;
59555;SDS011;45374;52.746;6.304;2022-08-05T12:29:26;1.02;;;0.65;;
59555;SDS011;45374;52.746;6.304;2022-08-05T12:31:57;1.92;;;0.50;;
59555;SDS011;45374;52.746;6.304;2022-08-05T12:34:25;2.75;;;0.57;;
59555;SDS011;45374;52.746;6.304;2022-08-05T12:37:13;3.65;;;0.60;;
59555;SDS011;45374;52.746;6.304;2022-08-05T12:39:40;2.25;;;0.50;;
59555;SDS011;45374;52.746;6.304;2022-08-05T12:42:10;3.85;;;0.77;;
59555;SDS011;45374;52.746;6.304;2022-08-05T12:44:37;2.92;;;0.60;;
59555;SDS011;45374;52.746;6.304;2022-08-05T12:47:03;3.50;;;0.65;;
59555;SDS011;45374;52.746;6.304;2022-08-05T12:49:43;0.50;;;0.50;;
59555;SDS011;45374;52.746;6.304;2022-08-05T12:52:11;1.13;;;0.77;;
59555;SDS011;45374;52.746;6.304;2022-08-05T12:54:42;3.93;;;0.90;;
59555;SDS011;45374;52.746;6.304;2022-08-05T12:57:10;2.72;;;0.68;;
59555;SDS011;45374;52.746;6.304;2022-08-05T13:02:11;3.08;;;0.70;;
59555;SDS011;45374;52.746;6.304;2022-08-05T13:04:40;3.88;;;0.70;;
59555;SDS011;45374;52.746;6.304;2022-08-05T13:07:17;2.55;;;0.70;;
59555;SDS011;45374;52.746;6.304;2022-08-05T13:09:55;1.17;;;0.50;;
59555;SDS011;45374;52.746;6.304;2022-08-05T13:12:24;2.97;;;0.75;;
59555;SDS011;45374;52.746;6.304;2022-08-05T13:17:26;1.00;;;0.63;;
59555;SDS011;45374;52.746;6.304;2022-08-05T13:22:33;3.38;;;0.60;;
59555;SDS011;45374;52.746;6.304;2022-08-05T13:25:06;2.15;;;0.70;;
59555;SDS011;45374;52.746;6.304;2022-08-05T13:30:00;1.33;;;0.73;;
59555;SDS011;45374;52.746;6.304;2022-08-05T13:32:26;2.92;;;0.70;;
59555;SDS011;45374;52.746;6.304;2022-08-05T13:34:53;2.28;;;0.73;;
59555;SDS011;45374;52.746;6.304;2022-08-05T13:37:19;1.15;;;0.77;;
59555;SDS011;45374;52.746;6.304;2022-08-05T13:39:46;2.40;;;0.77;;
59555;SDS011;45374;52.746;6.304;2022-08-05T13:42:13;2.25;;;0.80;;
59555;SDS011;45374;52.746;6.304;2022-08-05T13:44:38;2.22;;;0.73;;
59555;SDS011;45374;52.746;6.304;2022-08-05T13:47:04;1.05;;;0.63;;
59555;SDS011;45374;52.746;6.304;2022-08-05T13:49:30;1.83;;;0.60;;
59555;SDS011;45374;52.746;6.304;2022-08-05T13:51:55;1.20;;;0.65;;
59555;SDS011;45374;52.746;6.304;2022-08-05T13:54:21;3.28;;;0.50;;
59555;SDS011;45374;52.746;6.304;2022-08-05T13:56:50;2.15;;;0.52;;
59555;SDS011;45374;52.746;6.304;2022-08-05T13:59:17;1.77;;;0.60;;
59555;SDS011;45374;52.746;6.304;2022-08-05T14:01:47;1.02;;;0.50;;
59555;SDS011;45374;52.746;6.304;2022-08-05T14:04:12;2.33;;;0.60;;
59555;SDS011;45374;52.746;6.304;2022-08-05T14:06:56;1.95;;;0.50;;
59555;SDS011;45374;52.746;6.304;2022-08-05T14:09:22;1.80;;;0.60;;
59555;SDS011;45374;52.746;6.304;2022-08-05T14:11:47;2.40;;;0.57;;
59555;SDS011;45374;52.746;6.304;2022-08-05T14:14:13;1.30;;;0.63;;
59555;SDS011;45374;52.746;6.304;2022-08-05T14:16:38;1.20;;;0.50;;
59555;SDS011;45374;52.746;6.304;2022-08-05T14:19:04;2.10;;;0.60;;
59555;SDS011;45374;52.746;6.304;2022-08-05T14:21:30;1.48;;;0.50;;
59555;SDS011;45374;52.746;6.304;2022-08-05T14:23:55;2.30;;;0.50;;
59555;SDS011;45374;52.746;6.304;2022-08-05T14:26:21;1.80;;;0.52;;
59555;SDS011;45374;52.746;6.304;2022-08-05T14:28:46;2.25;;;1.00;;
59555;SDS011;45374;52.746;6.304;2022-08-05T14:31:12;2.97;;;1.00;;
59555;SDS011;45374;52.746;6.304;2022-08-05T14:33:37;4.43;;;0.85;;
59555;SDS011;45374;52.746;6.304;2022-08-05T14:36:03;1.92;;;0.80;;
59555;SDS011;45374;52.746;6.304;2022-08-05T14:38:29;2.72;;;0.80;;
59555;SDS011;45374;52.746;6.304;2022-08-05T14:40:55;4.90;;;1.00;;
59555;SDS011;45374;52.746;6.304;2022-08-05T14:43:21;5.53;;;1.08;;
59555;SDS011;45374;52.746;6.304;2022-08-05T14:45:46;3.60;;;0.80;;
59555;SDS011;45374;52.746;6.304;2022-08-05T14:48:12;4.97;;;0.95;;
59555;SDS011;45374;52.746;6.304;2022-08-05T14:50:38;3.28;;;0.80;;
59555;SDS011;45374;52.746;6.304;2022-08-05T14:53:03;2.25;;;1.00;;
59555;SDS011;45374;52.746;6.304;2022-08-05T14:55:29;4.55;;;0.80;;
59555;SDS011;45374;52.746;6.304;2022-08-05T14:57:54;2.45;;;0.80;;
59555;SDS011;45374;52.746;6.304;2022-08-05T15:00:20;1.92;;;0.80;;
59555;SDS011;45374;52.746;6.304;2022-08-05T15:02:46;3.72;;;0.90;;
59555;SDS011;45374;52.746;6.304;2022-08-05T15:05:12;3.42;;;0.70;;
59555;SDS011;45374;52.746;6.304;2022-08-05T15:07:38;1.98;;;0.70;;
59555;SDS011;45374;52.746;6.304;2022-08-05T15:10:04;3.63;;;0.88;;
59555;SDS011;45374;52.746;6.304;2022-08-05T15:12:30;1.08;;;0.60;;
59555;SDS011;45374;52.746;6.304;2022-08-05T15:14:56;2.33;;;0.60;;
59555;SDS011;45374;52.746;6.304;2022-08-05T15:17:23;2.30;;;0.73;;
59555;SDS011;45374;52.746;6.304;2022-08-05T15:19:48;2.85;;;0.68;;
59555;SDS011;45374;52.746;6.304;2022-08-05T15:22:14;1.67;;;0.70;;
59555;SDS011;45374;52.746;6.304;2022-08-05T15:24:40;1.67;;;0.70;;
59555;SDS011;45374;52.746;6.304;2022-08-05T15:27:06;2.60;;;0.80;;
59555;SDS011;45374;52.746;6.304;2022-08-05T15:29:32;0.98;;;0.55;;
59555;SDS011;45374;52.746;6.304;2022-08-05T15:31:57;2.00;;;0.50;;
59555;SDS011;45374;52.746;6.304;2022-08-05T15:34:23;1.80;;;0.60;;
59555;SDS011;45374;52.746;6.304;2022-08-05T15:36:48;2.03;;;0.60;;
59555;SDS011;45374;52.746;6.304;2022-08-05T15:39:14;2.55;;;0.60;;
59555;SDS011;45374;52.746;6.304;2022-08-05T15:41:40;2.97;;;0.52;;
59555;SDS011;45374;52.746;6.304;2022-08-05T15:44:06;1.55;;;0.50;;
59555;SDS011;45374;52.746;6.304;2022-08-05T15:46:31;1.40;;;0.50;;
59555;SDS011;45374;52.746;6.304;2022-08-05T15:48:57;0.98;;;0.60;;
59555;SDS011;45374;52.746;6.304;2022-08-05T15:51:26;1.35;;;0.60;;